Time;durP1;ratioP1;P1;durP2;ratioP2;P2;SDS_P1;SDS_P2;PMS_P1;PMS_P2;Temp;Humidity;BMP_temperature;BMP_pressure;BME280_temperature;BME280_humidity;BME280_pressure;Samples;Min_cycle;Max_cycle;Signal;HPM_P1;HPM_P2
2022/09/24 00:02:05;;;;;;;6.80;2.72;;;;;;;;;;5074404;28;20027;-81
2022/09/24 00:04:32;;;;;;;5.63;3.30;;;;;;;;;;5056490;28;20024;-80
2022/09/24 00:06:58;;;;;;;7.65;3.22;;;;;;;;;;5056524;28;20028;-80
2022/09/24 00:09:24;;;;;;;5.88;3.42;;;;;;;;;;5056336;28;20059;-82
2022/09/24 00:11:52;;;;;;;12.10;3.28;;;;;;;;;;5073960;28;20024;-81
2022/09/24 00:14:19;;;;;;;6.35;2.30;;;;;;;;;;5056230;28;20094;-78
2022/09/24 00:16:45;;;;;;;7.53;3.10;;;;;;;;;;5056318;28;20036;-81
2022/09/24 00:19:12;;;;;;;5.57;2.47;;;;;;;;;;5069476;28;20055;-81
2022/09/24 00:21:39;;;;;;;4.30;2.50;;;;;;;;;;5092794;28;20111;-79
2022/09/24 00:26:48;;;;;;;4.90;2.17;;;;;;;;;;5093204;28;20059;-79
2022/09/24 00:27:02;;;;;;;7.65;3.20;;;;;;;;;;5094215;28;20032;-81
2022/09/24 00:29:30;;;;;;;4.88;2.45;;;;;;;;;;5093062;28;20036;-78
2022/09/24 00:31:56;;;;;;;4.50;2.75;;;;;;;;;;5092681;28;20016;-81
2022/09/24 00:34:23;;;;;;;7.90;3.10;;;;;;;;;;5092765;28;20067;-80
2022/09/24 00:36:49;;;;;;;4.82;2.67;;;;;;;;;;5093990;28;20071;-79
2022/09/24 00:39:16;;;;;;;8.57;2.47;;;;;;;;;;5092652;28;20024;-80
2022/09/24 00:41:47;;;;;;;8.50;2.67;;;;;;;;;;5092658;28;20024;-80
2022/09/24 00:44:32;;;;;;;4.63;2.40;;;;;;;;;;5092675;28;20070;-80
2022/09/24 00:46:58;;;;;;;5.10;2.67;;;;;;;;;;5092418;28;20028;-79
2022/09/24 00:49:24;;;;;;;5.15;2.47;;;;;;;;;;5092059;28;20039;-81
2022/09/24 00:51:51;;;;;;;5.82;2.45;;;;;;;;;;5092428;28;20031;-80
2022/09/24 00:54:24;;;;;;;4.03;2.25;;;;;;;;;;5092231;28;20521;-80
2022/09/24 00:56:50;;;;;;;4.25;2.38;;;;;;;;;;5092362;28;20114;-80
2022/09/24 00:59:18;;;;;;;6.88;2.78;;;;;;;;;;5092433;28;20020;-81
2022/09/24 01:01:45;;;;;;;4.72;2.53;;;;;;;;;;5093757;28;20042;-80
2022/09/24 01:04:12;;;;;;;5.57;2.72;;;;;;;;;;5092270;28;20070;-81
2022/09/24 01:06:38;;;;;;;5.30;2.58;;;;;;;;;;5092359;28;20514;-79
2022/09/24 01:09:04;;;;;;;6.80;2.92;;;;;;;;;;5092281;28;20065;-81
2022/09/24 01:11:37;;;;;;;11.82;2.85;;;;;;;;;;5093610;28;20073;-80
2022/09/24 01:14:13;;;;;;;6.00;3.05;;;;;;;;;;5092395;28;20028;-79
2022/09/24 01:16:40;;;;;;;9.50;4.05;;;;;;;;;;5093259;28;20024;-81
2022/09/24 01:19:24;;;;;;;7.35;3.67;;;;;;;;;;5092101;28;20122;-80
2022/09/24 01:21:56;;;;;;;6.20;3.13;;;;;;;;;;5092080;28;20468;-79
2022/09/24 01:24:41;;;;;;;4.75;2.70;;;;;;;;;;5092026;28;20120;-80
2022/09/24 01:27:13;;;;;;;6.15;2.90;;;;;;;;;;5092049;28;20047;-80
2022/09/24 01:29:42;;;;;;;6.13;3.38;;;;;;;;;;5092089;28;20396;-80
2022/09/24 01:32:21;;;;;;;5.63;2.63;;;;;;;;;;5092239;28;20020;-80
2022/09/24 01:34:52;;;;;;;7.93;2.40;;;;;;;;;;5093466;28;20032;-80
2022/09/24 01:37:21;;;;;;;11.57;2.92;;;;;;;;;;5092450;28;20071;-81
2022/09/24 01:39:48;;;;;;;9.50;3.40;;;;;;;;;;5094211;28;20060;-80
2022/09/24 01:42:15;;;;;;;8.48;3.17;;;;;;;;;;5097154;28;20024;-81
2022/09/24 01:44:43;;;;;;;5.47;2.58;;;;;;;;;;5097613;28;20055;-80
2022/09/24 01:47:11;;;;;;;10.40;3.15;;;;;;;;;;5093595;28;20111;-80
2022/09/24 01:49:37;;;;;;;3.97;2.30;;;;;;;;;;5095354;28;20047;-81
2022/09/24 01:52:05;;;;;;;6.65;2.35;;;;;;;;;;5095027;28;20028;-80
2022/09/24 01:54:34;;;;;;;4.47;2.40;;;;;;;;;;5095015;28;20024;-80
2022/09/24 01:57:16;;;;;;;13.15;2.75;;;;;;;;;;5094719;28;20031;-80
2022/09/24 01:59:46;;;;;;;9.48;3.10;;;;;;;;;;5096114;28;20020;-80
2022/09/24 02:02:32;;;;;;;5.38;2.72;;;;;;;;;;5096403;28;20087;-81
2022/09/24 02:05:01;;;;;;;11.68;3.08;;;;;;;;;;5099618;28;20028;-79
2022/09/24 02:07:32;;;;;;;4.63;2.53;;;;;;;;;;5099661;28;20028;-80
2022/09/24 02:09:58;;;;;;;6.28;2.95;;;;;;;;;;5096638;28;20059;-79
2022/09/24 02:12:29;;;;;;;5.60;2.88;;;;;;;;;;5095635;28;20024;-80
2022/09/24 02:15:02;;;;;;;4.68;2.45;;;;;;;;;;5096746;28;20039;-76
2022/09/24 02:17:32;;;;;;;4.80;2.50;;;;;;;;;;5095577;28;20082;-79
2022/09/24 02:20:00;;;;;;;7.90;2.60;;;;;;;;;;5094951;28;20496;-81
2022/09/24 02:22:26;;;;;;;6.95;2.90;;;;;;;;;;5095413;28;20103;-81
2022/09/24 02:24:57;;;;;;;6.05;2.65;;;;;;;;;;5095346;28;20032;-80
2022/09/24 02:27:27;;;;;;;7.18;2.90;;;;;;;;;;5095239;28;20055;-80
2022/09/24 02:29:54;;;;;;;6.47;2.70;;;;;;;;;;5095232;28;20032;-80
2022/09/24 02:32:22;;;;;;;4.43;2.13;;;;;;;;;;5095030;28;20024;-80
2022/09/24 02:34:51;;;;;;;4.32;2.60;;;;;;;;;;5095173;28;20122;-79
2022/09/24 02:37:19;;;;;;;7.63;2.78;;;;;;;;;;5095118;28;20495;-81
2022/09/24 02:39:45;;;;;;;7.60;3.33;;;;;;;;;;5095035;28;20114;-81
2022/09/24 02:42:12;;;;;;;7.90;3.05;;;;;;;;;;5094971;28;20170;-79
2022/09/24 02:44:39;;;;;;;5.82;2.72;;;;;;;;;;5094741;28;20028;-79
2022/09/24 02:47:05;;;;;;;6.20;3.25;;;;;;;;;;5094654;28;20051;-80
2022/09/24 02:49:31;;;;;;;3.95;2.20;;;;;;;;;;5094767;28;20028;-80
2022/09/24 02:51:58;;;;;;;5.93;2.80;;;;;;;;;;5094776;28;20024;-81
2022/09/24 02:54:24;;;;;;;6.05;2.90;;;;;;;;;;5094551;28;20031;-80
2022/09/24 02:56:51;;;;;;;7.70;2.83;;;;;;;;;;5094574;28;20031;-80
2022/09/24 02:59:18;;;;;;;4.78;2.67;;;;;;;;;;5095882;28;20069;-81
2022/09/24 03:01:44;;;;;;;6.78;2.47;;;;;;;;;;5094602;28;20114;-80
2022/09/24 03:04:10;;;;;;;6.35;2.92;;;;;;;;;;5094498;28;20059;-80
2022/09/24 03:06:37;;;;;;;7.15;2.88;;;;;;;;;;5094220;28;20354;-79
2022/09/24 03:09:03;;;;;;;5.00;2.88;;;;;;;;;;5094401;28;20028;-81
2022/09/24 03:11:31;;;;;;;5.70;2.80;;;;;;;;;;5094506;28;20024;-80
2022/09/24 03:13:58;;;;;;;7.00;3.10;;;;;;;;;;5095363;28;20451;-80
2022/09/24 03:16:24;;;;;;;5.53;3.10;;;;;;;;;;5094006;28;20385;-80
2022/09/24 03:18:50;;;;;;;6.53;3.10;;;;;;;;;;5094022;28;20074;-80
2022/09/24 03:21:18;;;;;;;6.57;2.90;;;;;;;;;;5095583;28;20028;-82
2022/09/24 03:23:44;;;;;;;7.82;2.78;;;;;;;;;;5094075;28;20388;-80
2022/09/24 03:26:10;;;;;;;7.15;2.92;;;;;;;;;;5093886;28;20089;-79
2022/09/24 03:28:36;;;;;;;11.23;3.20;;;;;;;;;;5094115;28;20392;-80
2022/09/24 03:31:03;;;;;;;7.00;3.33;;;;;;;;;;5093790;28;20094;-81
2022/09/24 03:33:33;;;;;;;7.38;3.10;;;;;;;;;;5093895;28;20451;-80
2022/09/24 03:36:20;;;;;;;7.00;3.08;;;;;;;;;;5093922;28;20062;-80
2022/09/24 03:38:47;;;;;;;6.05;2.88;;;;;;;;;;5094826;28;20027;-80
2022/09/24 03:41:14;;;;;;;12.20;3.33;;;;;;;;;;5093923;28;20031;-80
2022/09/24 03:43:40;;;;;;;7.13;3.15;;;;;;;;;;5093619;28;20027;-80
2022/09/24 03:46:07;;;;;;;7.63;3.13;;;;;;;;;;5093631;28;20060;-80
2022/09/24 03:48:36;;;;;;;11.63;4.22;;;;;;;;;;5093583;28;20023;-80
2022/09/24 03:51:07;;;;;;;5.90;3.08;;;;;;;;;;5093359;28;20517;-79
2022/09/24 03:53:33;;;;;;;7.63;2.70;;;;;;;;;;5094569;28;20419;-80
2022/09/24 03:56:01;;;;;;;8.40;2.83;;;;;;;;;;5093685;28;20031;-80
2022/09/24 03:58:28;;;;;;;7.50;3.45;;;;;;;;;;5093529;28;20038;-80
2022/09/24 04:00:54;;;;;;;6.25;3.17;;;;;;;;;;5093195;28;20066;-80
2022/09/24 04:03:21;;;;;;;8.50;3.65;;;;;;;;;;5093319;28;20492;-80
2022/09/24 04:05:50;;;;;;;7.88;3.80;;;;;;;;;;5093270;28;20477;-80
2022/09/24 04:08:16;;;;;;;8.77;3.25;;;;;;;;;;5093167;28;20016;-80
2022/09/24 04:10:44;;;;;;;5.13;2.78;;;;;;;;;;5093207;28;20057;-80
2022/09/24 04:13:10;;;;;;;7.47;3.05;;;;;;;;;;5094454;28;20262;-80
2022/09/24 04:15:36;;;;;;;6.85;2.75;;;;;;;;;;5094313;28;20059;-80
2022/09/24 04:18:02;;;;;;;7.72;3.72;;;;;;;;;;5094589;28;20354;-80
2022/09/24 04:20:29;;;;;;;7.65;3.85;;;;;;;;;;5093027;28;20059;-79
2022/09/24 04:22:55;;;;;;;7.18;3.60;;;;;;;;;;5093242;28;20031;-79
2022/09/24 04:25:22;;;;;;;5.70;2.83;;;;;;;;;;5092276;28;20024;-80
2022/09/24 04:27:55;;;;;;;7.95;3.90;;;;;;;;;;5092578;28;20036;-79
2022/09/24 04:30:22;;;;;;;11.30;4.03;;;;;;;;;;5092970;28;20034;-79
2022/09/24 04:32:50;;;;;;;6.00;3.58;;;;;;;;;;5092894;28;20036;-80
2022/09/24 04:35:16;;;;;;;7.18;2.88;;;;;;;;;;5092676;28;20051;-80
2022/09/24 04:37:43;;;;;;;7.75;2.97;;;;;;;;;;5092837;28;20035;-80
2022/09/24 04:40:11;;;;;;;7.15;3.30;;;;;;;;;;5093795;28;20031;-80
2022/09/24 04:42:38;;;;;;;9.30;3.58;;;;;;;;;;5092260;28;20058;-80
2022/09/24 04:45:05;;;;;;;10.57;3.88;;;;;;;;;;5092664;28;20031;-82
2022/09/24 04:47:31;;;;;;;7.13;3.28;;;;;;;;;;5092604;28;20024;-82
2022/09/24 04:50:01;;;;;;;8.45;4.60;;;;;;;;;;5092466;28;20039;-81
2022/09/24 04:52:28;;;;;;;7.47;3.72;;;;;;;;;;5092479;28;20423;-81
2022/09/24 04:54:56;;;;;;;5.63;3.22;;;;;;;;;;5092141;28;20036;-80
2022/09/24 04:57:22;;;;;;;8.25;3.65;;;;;;;;;;5092152;28;20063;-80
2022/09/24 04:59:51;;;;;;;7.13;3.45;;;;;;;;;;5092313;28;20495;-76
2022/09/24 05:02:17;;;;;;;9.65;4.05;;;;;;;;;;5092863;28;20024;-79
2022/09/24 05:04:44;;;;;;;8.98;4.20;;;;;;;;;;5093245;28;20016;-80
2022/09/24 05:07:10;;;;;;;9.73;4.72;;;;;;;;;;5092860;28;20024;-78
2022/09/24 05:09:37;;;;;;;27.73;4.20;;;;;;;;;;5091773;28;20173;-79
2022/09/24 05:12:04;;;;;;;9.15;3.95;;;;;;;;;;5093484;28;20028;-76
2022/09/24 05:14:30;;;;;;;8.30;4.15;;;;;;;;;;5093290;28;20051;-80
2022/09/24 05:16:56;;;;;;;14.00;3.65;;;;;;;;;;5092053;28;20032;-80
2022/09/24 05:19:22;;;;;;;14.07;4.93;;;;;;;;;;5083341;28;20485;-80
2022/09/24 05:21:49;;;;;;;12.02;5.57;;;;;;;;;;5054963;28;20083;-79
2022/09/24 05:24:15;;;;;;;9.98;4.80;;;;;;;;;;5072909;28;20035;-76
2022/09/24 05:29:26;;;;;;;10.45;4.32;;;;;;;;;;5073225;28;20391;-80
2022/09/24 05:31:52;;;;;;;10.38;4.70;;;;;;;;;;5054916;28;20017;-79
2022/09/24 05:34:18;;;;;;;10.20;4.85;;;;;;;;;;5054992;28;20027;-80
2022/09/24 05:36:44;;;;;;;10.85;5.03;;;;;;;;;;5058207;28;20044;-80
2022/09/24 05:39:11;;;;;;;11.38;4.97;;;;;;;;;;5059163;28;20028;-81
2022/09/24 05:41:38;;;;;;;10.90;4.75;;;;;;;;;;5058932;28;20032;-79
2022/09/24 05:44:04;;;;;;;7.90;3.80;;;;;;;;;;5077162;28;20530;-80
2022/09/24 05:46:30;;;;;;;9.23;4.93;;;;;;;;;;5058999;28;20048;-80
2022/09/24 05:48:56;;;;;;;11.55;5.00;;;;;;;;;;5059156;28;20040;-79
2022/09/24 05:51:22;;;;;;;6.85;4.00;;;;;;;;;;5059076;28;20031;-80
2022/09/24 05:53:49;;;;;;;9.70;4.93;;;;;;;;;;5059124;28;20170;-82
2022/09/24 05:56:15;;;;;;;9.85;5.22;;;;;;;;;;5059182;28;20116;-80
2022/09/24 05:58:41;;;;;;;8.27;4.32;;;;;;;;;;5059038;28;20107;-80
2022/09/24 06:01:08;;;;;;;12.65;5.40;;;;;;;;;;5059018;28;20024;-77
2022/09/24 06:03:34;;;;;;;10.30;4.75;;;;;;;;;;5058650;28;20028;-78
2022/09/24 06:06:03;;;;;;;9.13;4.00;;;;;;;;;;5058548;28;20020;-78
2022/09/24 06:08:31;;;;;;;13.07;4.55;;;;;;;;;;5076488;28;20123;-78
2022/09/24 06:11:02;;;;;;;10.95;4.88;;;;;;;;;;5055274;28;20036;-79
2022/09/24 06:13:28;;;;;;;10.32;5.75;;;;;;;;;;5050166;28;20079;-78
2022/09/24 06:16:02;;;;;;;12.13;7.28;;;;;;;;;;5073417;28;20020;-78
2022/09/24 06:18:28;;;;;;;;;;;;;;;;;;5076593;28;20036;-79
2022/09/24 06:20:54;;;;;;;11.48;5.38;;;;;;;;;;5058409;28;19912;-80
2022/09/24 06:23:20;;;;;;;9.05;5.72;;;;;;;;;;5058548;28;20067;-80
2022/09/24 06:25:50;;;;;;;10.07;4.90;;;;;;;;;;5076036;28;20024;-79
2022/09/24 06:28:16;;;;;;;7.95;4.88;;;;;;;;;;5076138;28;20433;-79
2022/09/24 06:30:42;;;;;;;6.75;4.60;;;;;;;;;;5076070;28;20035;-82
2022/09/24 06:33:09;;;;;;;6.97;4.47;;;;;;;;;;5058156;28;20602;-79
2022/09/24 06:35:40;;;;;;;7.43;5.05;;;;;;;;;;5058289;28;20025;-82
2022/09/24 06:38:08;;;;;;;6.22;4.00;;;;;;;;;;5057838;28;20080;-79
2022/09/24 06:40:34;;;;;;;6.95;4.15;;;;;;;;;;5076034;28;20020;-81
2022/09/24 06:43:00;;;;;;;7.78;4.70;;;;;;;;;;5057969;28;20153;-80
2022/09/24 06:45:27;;;;;;;7.82;4.18;;;;;;;;;;5057794;28;20029;-77
2022/09/24 06:47:53;;;;;;;8.07;4.78;;;;;;;;;;5075337;28;20029;-76
2022/09/24 06:50:19;;;;;;;8.57;4.57;;;;;;;;;;5058111;28;20392;-80
2022/09/24 06:52:45;;;;;;;9.57;5.68;;;;;;;;;;5058499;28;20016;-82
2022/09/24 06:55:12;;;;;;;7.55;4.65;;;;;;;;;;5057954;28;20480;-81
2022/09/24 06:57:38;;;;;;;8.57;4.45;;;;;;;;;;5057838;28;20078;-81
2022/09/24 07:00:04;;;;;;;7.75;4.32;;;;;;;;;;5075533;28;20392;-79
2022/09/24 07:02:30;;;;;;;8.88;4.10;;;;;;;;;;5057799;28;20024;-80
2022/09/24 07:04:57;;;;;;;7.93;4.55;;;;;;;;;;5057670;28;20051;-79
2022/09/24 07:07:29;;;;;;;7.28;3.92;;;;;;;;;;5057682;28;20021;-76
2022/09/24 07:10:00;;;;;;;9.82;4.10;;;;;;;;;;5057555;28;20123;-80
2022/09/24 07:12:26;;;;;;;6.63;4.45;;;;;;;;;;5057635;28;20050;-78
2022/09/24 07:14:53;;;;;;;7.53;4.60;;;;;;;;;;5075005;28;20028;-79
2022/09/24 07:17:19;;;;;;;8.20;4.18;;;;;;;;;;5057349;28;20442;-80
2022/09/24 07:19:45;;;;;;;6.82;4.30;;;;;;;;;;5079379;28;20055;-80
2022/09/24 07:22:11;;;;;;;6.88;4.10;;;;;;;;;;5095938;28;20150;-85
2022/09/24 07:24:37;;;;;;;6.93;3.95;;;;;;;;;;5095060;28;20418;-87
2022/09/24 07:27:06;;;;;;;8.25;4.10;;;;;;;;;;5096504;28;20039;-87
2022/09/24 07:29:33;;;;;;;5.78;3.72;;;;;;;;;;5095747;28;20032;-88
2022/09/24 07:31:59;;;;;;;6.13;3.78;;;;;;;;;;5095032;28;20032;-87
2022/09/24 07:34:25;;;;;;;5.88;3.55;;;;;;;;;;5094813;28;20027;-83
2022/09/24 07:36:51;;;;;;;8.13;4.45;;;;;;;;;;5094778;28;20046;-86
2022/09/24 07:39:19;;;;;;;6.57;3.90;;;;;;;;;;5095616;28;20529;-85
2022/09/24 07:41:45;;;;;;;5.93;4.00;;;;;;;;;;5093983;28;20073;-80
2022/09/24 07:44:12;;;;;;;7.53;4.10;;;;;;;;;;5093510;28;20032;-79
2022/09/24 07:46:38;;;;;;;8.48;3.92;;;;;;;;;;5093445;28;20119;-79
2022/09/24 07:49:04;;;;;;;6.53;4.10;;;;;;;;;;5094891;28;20020;-79
2022/09/24 07:51:30;;;;;;;8.88;4.07;;;;;;;;;;5093502;28;20080;-80
2022/09/24 07:53:57;;;;;;;6.68;3.85;;;;;;;;;;5093424;28;20031;-81
2022/09/24 07:56:23;;;;;;;7.13;3.83;;;;;;;;;;5093453;28;20073;-80
2022/09/24 07:58:50;;;;;;;7.60;4.43;;;;;;;;;;5093377;28;20028;-81
2022/09/24 08:01:16;;;;;;;10.00;3.70;;;;;;;;;;5093261;28;20070;-79
2022/09/24 08:03:43;;;;;;;5.25;3.28;;;;;;;;;;5093426;28;20024;-79
2022/09/24 08:06:09;;;;;;;6.47;3.67;;;;;;;;;;5092935;28;20035;-79
2022/09/24 08:08:37;;;;;;;4.40;2.75;;;;;;;;;;5093130;28;20107;-80
2022/09/24 08:11:04;;;;;;;3.85;2.35;;;;;;;;;;5093183;28;20028;-79
2022/09/24 08:13:30;;;;;;;5.10;2.55;;;;;;;;;;5093251;28;20020;-76
2022/09/24 08:16:00;;;;;;;4.43;2.20;;;;;;;;;;5093060;28;20059;-79
2022/09/24 08:18:27;;;;;;;3.50;2.30;;;;;;;;;;5092002;28;20062;-77
2022/09/24 08:20:53;;;;;;;4.55;2.20;;;;;;;;;;5056106;28;20079;-83
2022/09/24 08:23:19;;;;;;;5.43;2.50;;;;;;;;;;5056102;28;20115;-83
2022/09/24 08:25:46;;;;;;;3.97;2.17;;;;;;;;;;5055890;28;20480;-83
2022/09/24 08:28:15;;;;;;;4.47;2.08;;;;;;;;;;5055380;28;20024;-83
2022/09/24 08:30:42;;;;;;;2.95;1.83;;;;;;;;;;5055352;28;20060;-84
2022/09/24 08:33:08;;;;;;;5.30;2.00;;;;;;;;;;5055892;28;20111;-83
2022/09/24 08:35:35;;;;;;;3.70;2.00;;;;;;;;;;5055737;28;20056;-83
2022/09/24 08:38:02;;;;;;;4.45;1.73;;;;;;;;;;5055661;28;20025;-83
2022/09/24 08:40:42;;;;;;;4.20;2.00;;;;;;;;;;5055860;28;20036;-82
2022/09/24 08:43:12;;;;;;;4.70;2.05;;;;;;;;;;5055625;28;20087;-83
2022/09/24 08:48:38;;;;;;;4.10;2.22;;;;;;;;;;5073533;28;20038;-83
2022/09/24 08:51:06;;;;;;;4.68;2.20;;;;;;;;;;5055588;28;20037;-82
2022/09/24 08:53:48;;;;;;;4.88;2.10;;;;;;;;;;5073329;28;20021;-82
2022/09/24 08:56:18;;;;;;;4.28;2.40;;;;;;;;;;5073544;28;20115;-83
2022/09/24 08:58:56;;;;;;;5.15;2.05;;;;;;;;;;5055406;28;20032;-82
2022/09/24 09:01:29;;;;;;;2.83;1.95;;;;;;;;;;5055494;28;20555;-83
2022/09/24 09:04:03;;;;;;;10.43;2.45;;;;;;;;;;5055389;28;20052;-82
2022/09/24 09:06:53;;;;;;;4.55;2.20;;;;;;;;;;5055444;28;20079;-82
2022/09/24 09:09:26;;;;;;;3.42;2.00;;;;;;;;;;5042435;28;20076;-80
2022/09/24 09:11:58;;;;;;;4.13;2.33;;;;;;;;;;5054964;28;20035;-83
2022/09/24 09:14:39;;;;;;;5.65;2.42;;;;;;;;;;5055309;28;20016;-82
2022/09/24 09:17:06;;;;;;;6.88;2.40;;;;;;;;;;5055032;28;20389;-82
2022/09/24 09:19:34;;;;;;;4.15;2.00;;;;;;;;;;5073966;28;20059;-82
2022/09/24 09:22:14;;;;;;;3.20;1.90;;;;;;;;;;5092439;28;20151;-82
2022/09/24 09:24:48;;;;;;;5.05;2.35;;;;;;;;;;5091999;28;20028;-82
2022/09/24 09:27:15;;;;;;;2.80;1.55;;;;;;;;;;5091861;28;20021;-83
2022/09/24 09:29:50;;;;;;;3.05;1.80;;;;;;;;;;5091931;28;20396;-82
2022/09/24 09:32:34;;;;;;;3.92;2.10;;;;;;;;;;5091964;28;20411;-82
2022/09/24 09:35:10;;;;;;;5.05;1.90;;;;;;;;;;5093278;28;20039;-82
2022/09/24 09:37:36;;;;;;;3.50;1.85;;;;;;;;;;5091831;28;20039;-82
2022/09/24 09:40:09;;;;;;;2.58;1.60;;;;;;;;;;5091845;28;20444;-82
2022/09/24 09:42:35;;;;;;;;;;;;;;;;;;5092369;28;20480;-82
2022/09/24 09:45:22;;;;;;;5.95;2.60;;;;;;;;;;5093209;28;19911;-80
2022/09/24 09:47:58;;;;;;;5.85;2.38;;;;;;;;;;5042587;28;20032;-81
2022/09/24 09:50:29;;;;;;;2.97;2.00;;;;;;;;;;5091362;28;20032;-81
2022/09/24 09:52:55;;;;;;;4.57;2.33;;;;;;;;;;5091792;28;20024;-81
2022/09/24 09:55:30;;;;;;;4.22;1.98;;;;;;;;;;5091592;28;20032;-79
2022/09/24 09:58:14;;;;;;;4.63;2.38;;;;;;;;;;5091842;28;20111;-82
2022/09/24 10:00:40;;;;;;;6.43;1.98;;;;;;;;;;5091643;28;20031;-81
2022/09/24 10:03:20;;;;;;;4.40;2.30;;;;;;;;;;5091722;28;20028;-81
2022/09/24 10:06:00;;;;;;;3.75;2.05;;;;;;;;;;5091682;28;20029;-81
2022/09/24 10:08:26;;;;;;;3.65;1.88;;;;;;;;;;5091522;28;20028;-82
2022/09/24 10:10:56;;;;;;;8.98;2.55;;;;;;;;;;5091543;28;20039;-82
2022/09/24 10:13:23;;;;;;;4.07;2.20;;;;;;;;;;5091677;28;20027;-81
2022/09/24 10:15:54;;;;;;;3.80;2.20;;;;;;;;;;5091528;28;20040;-79
2022/09/24 10:18:41;;;;;;;7.72;2.72;;;;;;;;;;5091729;28;20438;-81
2022/09/24 10:21:13;;;;;;;8.98;2.10;;;;;;;;;;5054503;28;20035;-82
2022/09/24 10:23:41;;;;;;;3.60;1.73;;;;;;;;;;5057453;28;20051;-80
2022/09/24 10:26:07;;;;;;;4.18;2.10;;;;;;;;;;5076159;28;20358;-81
2022/09/24 10:31:23;;;;;;;7.50;1.73;;;;;;;;;;5076197;28;20051;-82
2022/09/24 10:33:51;;;;;;;3.10;1.70;;;;;;;;;;5058239;28;20028;-80
2022/09/24 10:36:22;;;;;;;4.05;1.65;;;;;;;;;;5057948;28;20029;-82
2022/09/24 10:38:49;;;;;;;5.65;2.00;;;;;;;;;;5058067;28;20472;-82
2022/09/24 10:41:21;;;;;;;3.10;1.67;;;;;;;;;;5058181;28;20024;-82
2022/09/24 10:43:51;;;;;;;3.33;1.70;;;;;;;;;;5057855;28;20024;-82
2022/09/24 10:46:36;;;;;;;4.03;2.20;;;;;;;;;;5057796;28;20028;-81
2022/09/24 10:49:11;;;;;;;3.47;1.77;;;;;;;;;;5057906;28;20137;-81
2022/09/24 10:51:46;;;;;;;5.75;2.10;;;;;;;;;;5057678;28;20116;-81
2022/09/24 10:54:31;;;;;;;2.78;1.60;;;;;;;;;;5057939;28;20031;-82
2022/09/24 10:56:57;;;;;;;2.63;1.40;;;;;;;;;;5058049;28;20384;-81
2022/09/24 10:59:42;;;;;;;3.30;1.73;;;;;;;;;;5075734;28;20025;-81
2022/09/24 11:02:17;;;;;;;3.58;1.70;;;;;;;;;;5057383;28;20111;-81
2022/09/24 11:04:58;;;;;;;4.40;1.88;;;;;;;;;;5057669;28;20029;-81
2022/09/24 11:07:39;;;;;;;3.13;1.60;;;;;;;;;;5075765;28;20100;-81
2022/09/24 11:10:05;;;;;;;3.00;1.63;;;;;;;;;;5057461;28;20093;-81
2022/09/24 11:12:49;;;;;;;4.13;1.70;;;;;;;;;;5057249;28;20024;-81
2022/09/24 11:15:19;;;;;;;2.50;1.58;;;;;;;;;;5057472;28;20055;-81
2022/09/24 11:18:03;;;;;;;2.90;1.52;;;;;;;;;;5057540;28;20403;-81
2022/09/24 11:20:35;;;;;;;3.15;1.90;;;;;;;;;;5091480;28;20474;-80
2022/09/24 11:23:01;;;;;;;5.22;2.08;;;;;;;;;;5094045;28;20021;-81
2022/09/24 11:25:30;;;;;;;2.53;1.60;;;;;;;;;;5094238;28;20035;-80
2022/09/24 11:28:06;;;;;;;4.57;1.98;;;;;;;;;;5094061;28;20377;-81
2022/09/24 11:30:47;;;;;;;4.95;1.80;;;;;;;;;;5093806;28;20032;-81
2022/09/24 11:33:13;;;;;;;3.30;1.73;;;;;;;;;;5093720;28;20028;-81
2022/09/24 11:35:45;;;;;;;3.95;1.95;;;;;;;;;;5094076;28;20032;-81
2022/09/24 11:38:12;;;;;;;3.10;1.90;;;;;;;;;;5094558;28;20024;-80
2022/09/24 11:40:54;;;;;;;4.03;2.40;;;;;;;;;;5094405;28;20024;-81
2022/09/24 11:43:39;;;;;;;3.13;1.83;;;;;;;;;;5093854;28;20103;-80
2022/09/24 11:46:11;;;;;;;6.03;2.28;;;;;;;;;;5093837;28;20392;-81
2022/09/24 11:48:40;;;;;;;3.95;2.50;;;;;;;;;;5095174;28;20035;-81
2022/09/24 11:51:12;;;;;;;7.10;2.40;;;;;;;;;;5093504;28;20484;-81
2022/09/24 11:53:41;;;;;;;4.70;2.20;;;;;;;;;;5097252;28;20503;-81
2022/09/24 11:56:25;;;;;;;6.63;2.25;;;;;;;;;;5095543;28;20043;-81
2022/09/24 11:59:10;;;;;;;3.67;1.90;;;;;;;;;;5097067;28;20028;-80
2022/09/24 12:01:37;;;;;;;5.45;2.10;;;;;;;;;;5095837;28;20023;-81
2022/09/24 12:04:15;;;;;;;5.78;2.20;;;;;;;;;;5095475;28;20427;-80
2022/09/24 12:06:46;;;;;;;4.70;2.40;;;;;;;;;;5097062;28;20476;-80
2022/09/24 12:09:31;;;;;;;3.47;2.40;;;;;;;;;;5094988;28;20024;-80
2022/09/24 12:12:06;;;;;;;5.00;2.28;;;;;;;;;;5095694;28;20047;-80
2022/09/24 12:14:43;;;;;;;4.68;2.47;;;;;;;;;;5094509;28;20062;-80
2022/09/24 12:17:14;;;;;;;4.20;2.30;;;;;;;;;;5093844;28;20032;-80
2022/09/24 12:19:52;;;;;;;5.55;1.92;;;;;;;;;;5093652;28;20040;-80
2022/09/24 12:22:18;;;;;;;4.13;2.03;;;;;;;;;;5094358;28;20115;-80
2022/09/24 12:24:47;;;;;;;5.18;2.10;;;;;;;;;;5094353;28;20024;-80
2022/09/24 12:27:15;;;;;;;8.13;2.25;;;;;;;;;;5093516;28;20024;-81
2022/09/24 12:32:55;;;;;;;6.18;2.30;;;;;;;;;;5095330;28;20039;-80
2022/09/24 12:35:21;;;;;;;6.72;2.15;;;;;;;;;;5093790;28;20445;-80
2022/09/24 12:37:50;;;;;;;5.82;2.17;;;;;;;;;;5093571;28;20028;-80
2022/09/24 12:40:34;;;;;;;6.90;2.47;;;;;;;;;;5095569;28;20042;-79
2022/09/24 12:43:02;;;;;;;6.10;2.15;;;;;;;;;;5093790;28;20024;-79
2022/09/24 12:45:28;;;;;;;6.45;1.90;;;;;;;;;;5092025;28;20081;-80
2022/09/24 12:47:59;;;;;;;4.80;2.00;;;;;;;;;;5092447;28;20476;-80
2022/09/24 12:50:29;;;;;;;3.38;2.10;;;;;;;;;;5092492;28;20036;-79
2022/09/24 12:52:56;;;;;;;4.05;2.20;;;;;;;;;;5092449;28;20085;-80
2022/09/24 12:55:23;;;;;;;6.97;2.20;;;;;;;;;;5092428;28;20071;-79
2022/09/24 12:58:02;;;;;;;4.45;2.10;;;;;;;;;;5092432;28;20024;-79
2022/09/24 13:00:36;;;;;;;5.57;2.47;;;;;;;;;;5092099;28;20545;-79
2022/09/24 13:03:04;;;;;;;4.43;2.65;;;;;;;;;;5092417;28;20111;-79
2022/09/24 13:05:58;;;;;;;9.35;3.35;;;;;;;;;;5092223;28;20105;-80
2022/09/24 13:08:25;;;;;;;6.13;2.67;;;;;;;;;;5089390;28;20364;-80
2022/09/24 13:10:55;;;;;;;4.93;2.05;;;;;;;;;;5092076;28;20036;-80
2022/09/24 13:13:30;;;;;;;8.32;2.40;;;;;;;;;;5092256;28;20046;-79
2022/09/24 13:16:05;;;;;;;8.35;2.33;;;;;;;;;;5091931;28;20028;-80
2022/09/24 13:18:34;;;;;;;4.90;2.17;;;;;;;;;;5091015;28;20032;-80
2022/09/24 13:21:07;;;;;;;4.55;2.10;;;;;;;;;;5055194;28;20508;-79
2022/09/24 13:23:36;;;;;;;3.63;2.10;;;;;;;;;;5055038;28;20035;-79
2022/09/24 13:26:07;;;;;;;4.68;1.80;;;;;;;;;;5055089;28;20048;-80
2022/09/24 13:28:56;;;;;;;5.53;2.40;;;;;;;;;;5055150;28;20029;-79
2022/09/24 13:31:29;;;;;;;3.55;2.15;;;;;;;;;;5055067;28;20087;-79
2022/09/24 13:34:02;;;;;;;4.40;2.00;;;;;;;;;;5055151;28;20051;-80
2022/09/24 13:36:28;;;;;;;;;;;;;;;;;;5055351;28;20032;-80
2022/09/24 13:39:02;;;;;;;11.57;2.83;;;;;;;;;;5055056;28;19905;-79
2022/09/24 13:41:44;;;;;;;3.50;1.92;;;;;;;;;;5055132;28;20032;-80
2022/09/24 13:44:20;;;;;;;13.25;3.58;;;;;;;;;;5054960;28;20448;-79
2022/09/24 13:46:48;;;;;;;6.68;2.10;;;;;;;;;;5054938;28;20028;-79
2022/09/24 13:49:19;;;;;;;7.78;2.20;;;;;;;;;;5054571;28;20033;-79
2022/09/24 13:51:54;;;;;;;5.43;1.92;;;;;;;;;;5054959;28;20021;-79
2022/09/24 13:54:24;;;;;;;2.75;1.73;;;;;;;;;;5054929;28;20532;-79
2022/09/24 13:57:10;;;;;;;8.95;1.67;;;;;;;;;;5074376;28;20069;-79
2022/09/24 13:59:36;;;;;;;12.25;2.75;;;;;;;;;;5058360;28;20514;-79
2022/09/24 14:02:02;;;;;;;4.63;1.88;;;;;;;;;;5058680;28;20416;-79
2022/09/24 14:04:29;;;;;;;6.13;3.47;;;;;;;;;;5058741;28;20040;-79
2022/09/24 14:06:57;;;;;;;13.35;4.22;;;;;;;;;;5058669;28;20035;-80
2022/09/24 14:09:28;;;;;;;6.78;2.33;;;;;;;;;;5076438;28;20024;-79
2022/09/24 14:11:57;;;;;;;4.53;1.80;;;;;;;;;;5058594;28;20028;-79
2022/09/24 14:14:24;;;;;;;6.60;2.17;;;;;;;;;;5058225;28;20540;-80
2022/09/24 14:16:53;;;;;;;7.10;5.05;;;;;;;;;;5076429;28;20028;-79
2022/09/24 14:19:19;;;;;;;8.52;3.85;;;;;;;;;;5072459;28;20143;-79
2022/09/24 14:21:49;;;;;;;5.30;2.17;;;;;;;;;;5095230;28;20024;-78
2022/09/24 14:24:18;;;;;;;9.13;5.65;;;;;;;;;;5095184;28;20560;-79
2022/09/24 14:26:59;;;;;;;10.82;2.63;;;;;;;;;;5095308;28;20020;-79
2022/09/24 14:29:45;;;;;;;3.85;2.05;;;;;;;;;;5095184;28;20024;-79
2022/09/24 14:32:38;;;;;;;4.03;1.80;;;;;;;;;;5095035;28;20392;-79
2022/09/24 14:35:15;;;;;;;2.70;1.90;;;;;;;;;;5090558;28;20086;-79
2022/09/24 14:37:47;;;;;;;3.72;1.80;;;;;;;;;;5095141;28;20032;-79
2022/09/24 14:40:17;;;;;;;5.65;2.75;;;;;;;;;;5095036;28;20069;-79
2022/09/24 14:42:43;;;;;;;4.75;2.88;;;;;;;;;;5095078;28;20070;-79
2022/09/24 14:45:16;;;;;;;7.82;3.90;;;;;;;;;;5094861;28;20035;-77
2022/09/24 14:47:42;;;;;;;8.75;4.25;;;;;;;;;;5095993;28;20047;-79
2022/09/24 14:50:34;;;;;;;14.48;4.75;;;;;;;;;;5094720;28;20044;-79
2022/09/24 14:53:00;;;;;;;13.60;5.90;;;;;;;;;;5094853;28;20063;-79
2022/09/24 14:55:40;;;;;;;7.10;3.88;;;;;;;;;;5094667;28;20059;-80
2022/09/24 14:58:21;;;;;;;7.50;3.80;;;;;;;;;;5094742;28;20403;-80
2022/09/24 15:00:49;;;;;;;5.90;2.30;;;;;;;;;;5094643;28;20077;-79
2022/09/24 15:03:19;;;;;;;25.73;14.63;;;;;;;;;;5094547;28;20024;-80
2022/09/24 15:05:46;;;;;;;15.32;8.75;;;;;;;;;;5095538;28;20039;-79
2022/09/24 15:08:21;;;;;;;7.30;3.28;;;;;;;;;;5093825;28;20020;-79
2022/09/24 15:10:58;;;;;;;4.38;2.15;;;;;;;;;;5094390;28;20036;-79
2022/09/24 15:13:26;;;;;;;33.88;13.00;;;;;;;;;;5094301;28;20078;-79